Latest Weather Observations for Ballina

IDN60801

Issued at 9:32 pm EST Thursday 22 June 2017 (issued every 30 minutes, with the page automatically refreshed every 10 minutes)

About weather observations | Map of weather stations | Latest weather observations for NSW | Other Formats
Station Details ID: 058198 Name: BALLINA AIRPORT AWS Lat: -28.84 Lon: 153.56 Height: 1.3 m
Data from the previous 72 hours. | See also: Recent months at Ballina
Date/Time
EST
Temp
°C
App
Temp
°C
Dew
Point
°C
Rel
Hum
%
Delta-T
°C
Wind Press
QNH
hPa
Press
MSL
hPa
Rain since
9am
mm
Dir  Spd
km/h
Gust
km/h
Spd
kts
Gust
kts
22/09:30pm 16.2 15.8 14.2 88 1.1 WSW 9 13 5 7 1024.5 1024.5 0.0
22/09:00pm 15.9 15.0 13.6 86 1.3 SW 11 17 6 9 1024.7 1024.7 0.0
22/08:30pm 15.7 15.0 13.2 85 1.4 SW 9 13 5 7 1024.8 1024.8 0.0
22/08:00pm 14.3 13.8 12.5 89 1.0 WSW 7 9 4 5 1024.7 1024.7 0.0
22/07:30pm 14.5 13.5 12.2 86 1.2 WSW 9 11 5 6 1024.7 1024.7 0.0
22/07:00pm 14.8 13.5 12.5 86 1.3 WSW 11 13 6 7 1024.5 1024.5 0.0
22/06:30pm 15.3 14.1 12.8 85 1.4 WSW 11 13 6 7 1024.5 1024.5 0.0
22/06:00pm 15.0 14.6 13.0 88 1.1 WSW 7 9 4 5 1024.2 1024.2 0.0
22/05:30pm 15.0 14.5 12.7 86 1.3 W 7 9 4 5 1024.1 1024.1 0.0
22/05:00pm 17.1 16.6 12.6 75 2.5 WSW 7 9 4 5 1023.8 1023.8 0.0
22/04:30pm 18.8 18.1 12.1 65 3.7 SSW 7 11 4 6 1023.6 1023.6 0.0
22/04:00pm 19.6 18.0 11.4 59 4.5 S 11 15 6 8 1023.5 1023.5 0.0
22/03:30pm 20.1 18.1 11.6 58 4.7 SSW 13 19 7 10 1023.4 1023.4 0.0
22/03:00pm 20.1 17.7 11.3 57 4.8 SSE 15 19 8 10 1023.3 1023.3 0.0
22/02:30pm 20.2 17.6 11.9 59 4.6 S 17 22 9 12 1023.4 1023.4 0.0
22/02:00pm 20.1 17.5 12.1 60 4.4 S 17 20 9 11 1023.6 1023.6 0.0
22/01:30pm 21.2 20.3 13.6 62 4.4 SSW 11 19 6 10 1023.8 1023.8 0.0
22/01:00pm 20.5 18.7 13.2 63 4.1 SSW 15 19 8 10 1024.0 1024.0 0.0
22/12:30pm 20.2 18.1 13.6 66 3.8 SSW 17 24 9 13 1024.5 1024.5 0.0
22/12:00pm 19.8 18.1 13.5 67 3.6 SW 15 22 8 12 1025.1 1025.1 0.0
22/11:30am 19.4 17.1 13.1 67 3.6 SW 17 24 9 13 1025.6 1025.6 0.0
22/11:00am 18.9 17.0 12.9 68 3.4 SW 15 28 8 15 1025.9 1025.9 0.0
22/10:30am 18.8 16.6 13.2 70 3.2 SW 17 26 9 14 1026.3 1026.3 0.0
22/10:00am 17.8 15.0 12.7 72 2.8 SW 19 26 10 14 1026.5 1026.5 0.0
22/09:30am 17.4 14.9 12.3 72 2.8 WSW 17 26 9 14 1026.5 1026.5 0.0
22/09:00am 17.0 14.6 12.5 75 2.5 WSW 17 22 9 12 1026.6 1026.6 2.0
22/08:30am 15.4 13.1 11.8 79 1.9 WSW 15 19 8 10 1026.4 1026.4 2.0
22/08:00am 15.3 13.4 11.9 80 1.8 WSW 13 19 7 10 1026.0 1026.0 2.0
22/07:30am 14.6 13.0 11.6 82 1.6 WSW 11 17 6 9 1025.7 1025.7 2.0
22/07:00am 14.4 12.9 11.9 85 1.3 WSW 11 17 6 9 1025.6 1025.6 2.0
22/06:30am 14.4 11.7 11.6 83 1.5 WSW 17 22 9 12 1025.1 1025.1 2.0
22/06:00am 14.7 11.7 10.5 76 2.2 SW 17 24 9 13 1024.8 1024.8 2.0
22/05:30am 14.8 12.3 11.2 79 1.9 SW 15 19 8 10 1024.7 1024.7 2.0
22/05:00am 14.9 13.1 12.2 84 1.5 WSW 13 15 7 8 1024.3 1024.3 2.0
22/04:30am 15.1 12.8 11.7 80 1.8 SW 15 20 8 11 1024.3 1024.3 2.0
22/04:00am 15.3 12.5 11.3 77 2.1 SW 17 24 9 13 1024.0 1024.0 1.8
22/03:30am 14.9 12.8 11.1 78 2.0 WSW 13 17 7 9 1023.9 1023.9 1.8
22/03:00am 14.7 12.0 10.5 76 2.2 WSW 15 19 8 10 1024.0 1024.0 1.8
22/02:30am 14.7 12.4 10.5 76 2.2 WSW 13 19 7 10 1024.0 1024.0 1.8
22/02:00am 15.0 12.4 10.8 76 2.2 SW 15 22 8 12 1024.0 1024.0 1.8
22/01:30am 15.3 14.6 11.9 80 1.8 SW 7 17 4 9 1024.2 1024.2 1.8
22/01:00am 15.9 13.2 11.7 76 2.3 SW 17 24 9 13 1024.3 1024.3 1.8
22/12:30am 16.0 14.2 12.2 78 2.1 SW 13 17 7 9 1024.6 1024.6 1.8
22/12:00am 16.0 14.3 12.6 80 1.9 SW 13 19 7 10 1024.8 1024.8 1.8
 
Date/Time
EST
Temp
°C
App
Temp
°C
Dew
Point
°C
Rel
Hum
%
Delta-T
°C
Wind Press
QNH
hPa
Press
MSL
hPa
Rain since
9am
mm
Dir  Spd
km/h
Gust
km/h
Spd
kts
Gust
kts
21/11:30pm 16.0 13.6 12.7 81 1.8 SW 17 22 9 12 1024.7 1024.7 1.8
21/11:00pm 16.2 14.1 13.5 84 1.5 SW 17 20 9 11 1024.9 1024.9 1.8
21/10:30pm 16.0 14.7 13.8 87 1.2 SW 13 20 7 11 1025.1 1025.1 1.8
21/10:00pm 16.1 15.3 14.1 88 1.1 SW 11 17 6 9 1025.2 1025.2 1.2
21/09:30pm 16.4 14.5 14.2 87 1.3 WSW 17 22 9 12 1025.0 1025.0 1.2
21/09:00pm 16.5 15.0 14.2 86 1.3 SW 15 22 8 12 1024.8 1024.8 1.2
21/08:30pm 16.6 15.4 14.1 85 1.4 SSW 13 19 7 10 1024.7 1024.7 1.0
21/08:00pm 16.6 15.0 13.9 84 1.5 SW 15 17 8 9 1024.7 1024.7 0.8
21/07:30pm 16.8 14.7 13.5 81 1.9 SW 17 24 9 13 1024.4 1024.4 0.4
21/07:00pm 17.4 15.1 13.1 76 2.4 SW 17 24 9 13 1024.1 1024.1 0.2
21/06:30pm 17.5 16.1 13.4 77 2.3 SW 13 19 7 10 1023.8 1023.8 0.2
21/06:00pm 17.4 16.5 13.7 79 2.1 SSW 11 17 6 9 1023.6 1023.6 0.2
21/05:30pm 18.6 16.9 13.7 73 2.8 SW 15 26 8 14 1023.1 1023.1 0.0
21/05:00pm 18.5 16.4 13.6 73 2.8 SSW 17 24 9 13 1022.8 1022.8 0.0
21/04:30pm 18.9 16.8 13.7 72 3.0 SSW 17 24 9 13 1022.4 1022.4 0.0
21/04:00pm 19.3 16.6 13.5 69 3.3 SSW 20 28 11 15 1022.3 1022.3 0.0
21/03:30pm 19.4 16.7 13.6 69 3.3 SSW 20 30 11 16 1022.4 1022.4 0.0
21/03:00pm 19.7 17.0 13.4 67 3.6 SSW 20 30 11 16 1022.3 1022.3 0.0
21/02:30pm 19.3 16.2 13.3 68 3.4 SSW 22 32 12 17 1022.3 1022.3 0.0
21/02:00pm 19.3 16.2 13.3 68 3.4 SSW 22 32 12 17 1022.3 1022.3 0.0
21/01:30pm 19.2 15.9 12.9 67 3.5 SSW 22 32 12 17 1022.4 1022.4 0.0
21/01:00pm 19.0 16.0 12.7 67 3.5 SSW 20 32 11 17 1022.5 1022.5 0.0
21/12:30pm 18.9 16.2 12.9 68 3.4 SSW 19 35 10 19 1022.7 1022.7 0.0
21/12:00pm 18.7 16.1 13.1 70 3.1 WSW 19 24 10 13 1023.0 1023.0 0.0
21/11:30am 17.8 14.9 12.3 70 3.0 WSW 19 26 10 14 1023.1 1023.1 0.0
21/11:00am 17.9 15.0 12.4 70 3.0 SW 19 28 10 15 1023.6 1023.6 0.0
21/10:30am 17.5 14.5 11.8 69 3.1 WSW 19 24 10 13 1023.7 1023.7 0.0
21/10:00am 17.2 13.8 11.2 68 3.2 WSW 20 32 11 17 1023.7 1023.7 0.0
21/09:30am 17.2 14.0 11.2 68 3.2 WSW 19 24 10 13 1023.7 1023.7 0.0
21/09:00am 16.4 12.9 10.9 70 2.9 WSW 20 26 11 14 1023.4 1023.4 12.8
21/08:30am 15.8 13.7 11.2 74 2.5 WSW 13 19 7 10 1023.3 1023.3 12.8
21/08:00am 14.5 11.8 10.3 76 2.2 WSW 15 19 8 10 1022.9 1022.9 12.8
21/07:30am 13.5 11.2 10.5 82 1.6 W 13 17 7 9 1022.7 1022.7 12.8
21/07:00am 13.2 10.8 10.0 81 1.6 WSW 13 15 7 8 1022.6 1022.6 12.8
21/06:30am 13.4 11.0 10.2 81 1.7 WSW 13 15 7 8 1022.4 1022.4 12.8
21/06:00am 13.4 11.0 10.0 80 1.7 WSW 13 17 7 9 1022.1 1022.1 12.8
21/05:30am 13.1 10.4 10.3 83 1.4 WSW 15 19 8 10 1021.9 1021.9 12.8
21/05:00am 12.7 10.1 10.6 87 1.1 W 15 17 8 9 1021.8 1021.8 12.8
21/04:30am 12.9 11.1 10.8 87 1.1 WSW 11 13 6 7 1021.6 1021.6 12.8
21/04:00am 13.3 11.2 11.0 86 1.2 WSW 13 15 7 8 1021.7 1021.7 12.8
21/03:30am 14.0 11.6 11.3 84 1.4 WSW 15 19 8 10 1021.6 1021.6 12.8
21/03:00am 14.4 12.4 11.6 83 1.5 WSW 13 17 7 9 1021.9 1021.9 12.8
21/02:30am 14.3 12.3 11.6 84 1.4 WSW 13 19 7 10 1022.1 1022.1 12.8
21/02:00am 14.2 11.4 11.2 82 1.6 WSW 17 19 9 10 1022.3 1022.3 12.8
21/01:30am 14.4 12.0 11.4 82 1.6 WSW 15 17 8 9 1022.5 1022.5 12.8
21/01:00am 15.0 12.7 11.8 81 1.7 WSW 15 20 8 11 1022.8 1022.8 12.8
21/12:30am 14.9 12.6 11.9 82 1.6 WSW 15 19 8 10 1022.6 1022.6 12.8
21/12:00am 14.7 12.8 11.7 82 1.6 WSW 13 17 7 9 1022.7 1022.7 12.8
 
Date/Time
EST
Temp
°C
App
Temp
°C
Dew
Point
°C
Rel
Hum
%
Delta-T
°C
Wind Press
QNH
hPa
Press
MSL
hPa
Rain since
9am
mm
Dir  Spd
km/h
Gust
km/h
Spd
kts
Gust
kts
20/11:30pm 15.4 13.1 11.8 79 1.9 SW 15 22 8 12 1023.0 1023.0 12.8
20/11:00pm 15.4 13.6 12.0 80 1.8 WSW 13 19 7 10 1023.0 1023.0 12.8
20/10:30pm 15.6 12.9 11.8 78 2.1 SW 17 22 9 12 1023.2 1023.2 12.8
20/10:00pm 15.6 13.0 12.0 79 1.9 WSW 17 22 9 12 1023.4 1023.4 12.8
20/09:30pm 15.8 12.2 12.0 78 2.1 SW 22 33 12 18 1023.5 1023.5 12.8
20/09:00pm 16.1 12.5 11.9 76 2.3 SW 22 32 12 17 1023.5 1023.5 12.8
20/08:30pm 16.5 13.1 12.5 77 2.2 SW 22 35 12 19 1023.4 1023.4 12.8
20/08:00pm 16.0 13.0 12.7 81 1.8 SW 20 28 11 15 1023.2 1023.2 12.8
20/07:30pm 15.8 13.0 13.3 85 1.4 SW 20 28 11 15 1022.8 1022.8 12.8
20/07:08pm 15.8 13.8 14.0 89 1.0 SW 17 26 9 14 1022.7 1022.7 12.8
20/07:00pm 15.8 13.5 14.2 90 0.9 SSW 19 30 10 16 1022.7 1022.7 12.8
20/06:32pm 16.6 15.2 14.4 87 1.3 SW 15 22 8 12 1022.7 1022.7 11.4
20/06:30pm 16.6 15.1 14.2 86 1.4 SW 15 22 8 12 1022.5 1022.5 10.8
20/06:00pm 18.2 15.9 14.7 80 2.0 SSW 20 32 11 17 1022.4 1022.4 10.8
20/05:30pm 17.7 14.0 14.0 79 2.1 S 26 43 14 23 1022.2 1022.2 10.8
20/05:07pm 16.6 12.5 15.0 90 0.9 SSW 30 44 16 24 1022.2 1022.2 10.8
20/05:00pm 16.6 12.0 15.1 91 0.9 S 33 48 18 26 1022.3 1022.3 10.8
20/04:48pm 17.1 13.5 15.3 89 1.0 SSW 28 44 15 24 1022.1 1022.1 10.6
20/04:30pm 17.4 14.3 15.7 90 1.0 S 26 39 14 21 1021.9 1021.9 9.8
20/04:00pm 16.8 14.5 15.8 94 0.6 SW 22 41 12 22 1021.8 1021.8 9.4
20/03:49pm 17.1 14.6 16.1 94 0.6 SSW 24 37 13 20 1021.7 1021.7 9.2
20/03:30pm 16.9 15.2 16.3 96 0.4 SSW 20 35 11 19 1021.7 1021.7 9.2
20/03:13pm 17.1 15.5 16.5 96 0.4 SW 20 32 11 17 1021.8 1021.8 9.0
20/03:00pm 17.3 15.4 16.7 96 0.4 SSW 22 35 12 19 1021.8 1021.8 8.6
20/02:56pm 17.1 14.7 16.5 96 0.4 SSW 24 39 13 21 1021.7 1021.7 8.6
20/02:44pm 16.8 13.9 16.2 96 0.4 SSW 26 41 14 22 1021.7 1021.7 8.6
20/02:30pm 17.1 15.5 16.5 96 0.4 SSW 20 37 11 20 1021.7 1021.7 8.6
20/02:24pm 17.2 15.5 16.2 94 0.6 S 20 37 11 20 1021.7 1021.7 8.2
20/02:04pm 17.0 14.6 16.4 96 0.4 SW 24 37 13 20 1021.5 1021.5 7.2
20/02:00pm 17.0 15.0 16.5 97 0.3 SW 22 37 12 20 1021.5 1021.5 7.2
20/01:33pm 17.0 15.4 16.4 96 0.4 SW 20 30 11 16 1021.8 1021.8 6.0
20/01:30pm 17.2 15.6 16.6 96 0.4 SW 20 30 11 16 1021.8 1021.8 5.8
20/01:26pm 17.2 15.3 16.6 96 0.4 SW 22 32 12 17 1021.9 1021.9 5.8
20/01:24pm 17.2 15.3 16.6 96 0.4 SSW 22 32 12 17 1021.9 1021.9 5.8
20/01:04pm 17.2 14.4 16.4 95 0.5 SW 26 43 14 23 1022.0 1022.0 5.6
20/01:00pm 17.5 15.1 16.5 94 0.6 SW 24 35 13 19 1022.0 1022.0 5.2
20/12:51pm 17.4 15.2 16.9 97 0.3 SSW 24 35 13 19 1022.2 1022.2 5.0
20/12:36pm 17.1 14.9 16.8 98 0.2 SW 24 44 13 24 1022.3 1022.3 5.0
20/12:30pm 17.1 15.6 16.8 98 0.2 SW 20 32 11 17 1022.3 1022.3 4.6
20/12:11pm 17.3 15.9 17.1 99 0.1 SW 20 35 11 19 1022.5 1022.5 4.6
20/12:00pm 17.1 16.6 16.9 99 0.1 S 15 24 8 13 1022.8 1022.8 4.6
20/11:56am 16.9 16.3 16.7 99 0.1 S 15 20 8 11 1022.8 1022.8 4.6
20/11:43am 17.4 15.5 16.8 96 0.4 SW 22 32 12 17 1022.8 1022.8 0.8
20/11:30am 17.5 16.1 17.0 97 0.3 SW 20 28 11 15 1022.9 1022.9 0.4
20/11:00am 17.2 15.6 16.6 96 0.4 SW 20 30 11 16 1023.4 1023.4 0.4
20/10:30am 16.9 15.5 16.6 98 0.2 SW 19 28 10 15 1023.5 1023.5 0.4
20/10:24am 17.3 16.5 17.1 99 0.1 SW 17 22 9 12 1023.6 1023.6 0.4
20/10:21am 16.9 15.9 16.7 99 0.1 SW 17 24 9 13 1023.7 1023.7 0.4
20/10:07am 16.2 13.6 15.9 98 0.2 SW 24 33 13 18 1023.9 1023.9 0.2
20/10:00am 16.4 14.3 16.1 98 0.2 SW 22 33 12 18 1023.9 1023.9 0.2
20/09:52am 16.4 14.9 16.2 99 0.1 SW 19 26 10 14 1023.9 1023.9 0.2
20/09:51am 16.4 14.9 16.2 99 0.1 SW 19 26 10 14 1023.8 1023.8 0.2
20/09:34am 16.1 14.8 15.9 99 0.1 SW 17 24 9 13 1023.7 1023.7 0.2
20/09:30am 15.9 14.6 15.7 99 0.1 SW 17 28 9 15 1023.7 1023.7 0.2
20/09:14am 15.6 13.6 15.4 99 0.1 SW 20 28 11 15 1023.6 1023.6 0.0
20/09:13am 15.7 13.7 15.5 99 0.1 SW 20 28 11 15 1023.6 1023.6 0.0
20/09:00am 15.4 12.5 15.2 99 0.1 SW 24 41 13 22 1023.7 1023.7 49.0
20/08:46am 15.3 12.8 15.1 99 0.1 SW 22 33 12 18 1023.6 1023.6 48.4
20/08:30am 14.9 12.6 14.7 99 0.1 SW 20 32 11 17 1023.5 1023.5 48.0
20/08:27am 14.9 12.2 14.7 99 0.1 SW 22 32 12 17 1023.4 1023.4 48.0
20/08:22am 14.8 12.1 14.6 99 0.1 SW 22 30 12 16 1023.4 1023.4 48.0
20/08:11am 14.9 12.2 14.7 99 0.1 SW 22 32 12 17 1023.4 1023.4 48.0
20/08:00am 15.1 12.9 14.9 99 0.1 SW 20 28 11 15 1023.3 1023.3 48.0
20/07:30am 15.3 13.2 15.1 99 0.1 SW 20 30 11 16 1023.3 1023.3 47.6
20/07:26am 15.5 13.6 15.3 99 0.1 SW 19 30 10 16 1023.2 1023.2 47.6
20/07:19am 15.5 14.4 15.3 99 0.1 SW 15 20 8 11 1023.3 1023.3 47.6
20/07:00am 15.4 13.9 15.2 99 0.1 SW 17 26 9 14 1023.3 1023.3 47.6
20/06:46am 15.5 13.6 15.2 98 0.2 SSW 19 28 10 15 1023.4 1023.4 45.0
20/06:35am 15.8 13.7 15.2 96 0.3 SW 20 28 11 15 1023.1 1023.1 43.4
20/06:33am 15.8 13.7 15.2 96 0.3 SW 20 28 11 15 1023.0 1023.0 43.0
20/06:30am 16.0 14.0 15.4 96 0.3 SW 20 28 11 15 1022.9 1022.9 42.8
20/06:00am 15.8 12.9 15.2 96 0.3 SW 24 32 13 17 1022.8 1022.8 42.6
20/05:30am 16.1 14.2 15.3 95 0.5 SW 19 26 10 14 1022.5 1022.5 42.4
20/05:04am 16.5 13.9 15.0 91 0.9 SW 22 30 12 16 1022.2 1022.2 42.2
20/05:00am 16.8 14.3 15.2 90 0.9 SW 22 30 12 16 1022.2 1022.2 42.2
20/04:30am 17.6 14.5 15.6 88 1.2 S 26 35 14 19 1022.1 1022.1 42.2
20/04:28am 17.4 14.2 15.4 88 1.2 S 26 39 14 21 1022.1 1022.1 42.2
20/04:12am 17.6 15.9 16.3 92 0.8 SSW 20 39 11 21 1022.2 1022.2 42.2
20/04:00am 17.5 15.2 15.8 90 1.0 S 22 33 12 18 1022.2 1022.2 41.6
20/03:32am 17.2 14.5 15.7 91 0.9 SSW 24 37 13 20 1022.4 1022.4 41.6
20/03:30am 17.3 14.6 15.6 90 1.0 SSW 24 33 13 18 1022.4 1022.4 41.6
20/03:00am 17.2 14.5 15.7 91 0.9 SSW 24 33 13 18 1022.5 1022.5 41.4
20/02:30am 17.3 14.6 15.6 90 1.0 SSW 24 41 13 22 1022.6 1022.6 41.4
20/02:22am 17.4 14.3 15.6 89 1.1 SSW 26 39 14 21 1022.7 1022.7 41.4
20/02:00am 17.0 14.2 15.3 90 1.0 SSW 24 46 13 25 1022.9 1022.9 41.4
20/01:33am 16.5 14.0 15.2 92 0.8 SSW 22 32 12 17 1023.1 1023.1 41.4
20/01:30am 16.5 14.1 15.4 93 0.6 SSW 22 30 12 16 1023.1 1023.1 41.4
20/01:11am 16.7 13.1 15.2 91 0.9 SSW 28 50 15 27 1023.4 1023.4 41.4
20/01:04am 16.9 14.8 15.2 90 1.0 SW 20 50 11 27 1023.4 1023.4 41.4
20/01:00am 16.5 14.7 14.5 88 1.1 SW 17 22 9 12 1023.2 1023.2 41.2
20/12:32am 17.1 14.7 15.4 90 1.0 SSW 22 37 12 20 1023.4 1023.4 41.2
20/12:30am 16.9 14.9 15.4 91 0.9 SSW 20 37 11 20 1023.5 1023.5 41.2
20/12:05am 15.9 14.1 14.4 91 0.9 SW 17 28 9 15 1023.4 1023.4 41.2
20/12:03am 15.9 14.0 14.3 90 0.9 SW 17 28 9 15 1023.5 1023.5 41.2
20/12:00am 15.9 13.6 14.1 89 1.0 SW 19 28 10 15 1023.5 1023.5 41.2
 
Date/Time
EST
Temp
°C
App
Temp
°C
Dew
Point
°C
Rel
Hum
%
Delta-T
°C
Wind Press
QNH
hPa
Press
MSL
hPa
Rain since
9am
mm
Dir  Spd
km/h
Gust
km/h
Spd
kts
Gust
kts
19/11:50pm 16.3 14.4 14.1 87 1.2 SW 17 22 9 12 1023.5 1023.5 41.0
19/11:30pm 18.1 14.7 13.6 75 2.6 SSW 24 37 13 20 1023.3 1023.3 40.4
19/11:01pm 18.3 13.4 14.2 77 2.4 S 33 52 18 28 1023.6 1023.6 40.4
19/11:00pm 18.3 12.9 14.0 76 2.4 S 35 52 19 28 1023.6 1023.6 40.4
19/10:46pm 18.3 14.0 14.4 78 2.2 S 30 48 16 26 1023.6 1023.6 40.4
19/10:30pm 17.8 14.1 14.9 83 1.7 SSW 28 48 15 26 1023.7 1023.7 40.4
19/10:26pm 17.3 14.6 15.5 89 1.1 SSW 24 48 13 26 1023.7 1023.7 40.4
19/10:00pm 16.1 13.7 15.3 95 0.5 SW 22 30 12 16 1023.9 1023.9 40.4
19/09:36pm 16.7 14.2 16.2 97 0.3 SSW 24 43 13 23 1024.0 1024.0 40.4
19/09:33pm 16.8 14.7 16.3 97 0.3 SW 22 39 12 21 1024.0 1024.0 40.4

Other Formats:

Comma delimited format used in spreadsheet applications
http://www.bom.gov.au/fwo/IDN60801/IDN60801.94596.axf

JavaScript Object Notation format (JSON) in row-major order
http://www.bom.gov.au/fwo/IDN60801/IDN60801.94596.json